Latest Coastal Weather Observations for Larapuna (Eddystone Point)

IDT60701

Issued at 6:12 am EDT Tuesday 7 February 2023 (issued every 10 minutes, with the page automatically refreshed every 10 minutes)

About coastal observations | Map of coastal stations | Coastal observations for TAS | Marine services | Other Formats
Station Details ID: 092045 Name: LARAPUNA (EDDYSTONE POINT) Lat: -40.99 Lon: 148.35 Height: 19.7 m
Data from the previous 72 hours. | See also: Recent months at Larapuna (Eddystone Point)
Date/Time
EDT
Wind Sea
Height
m
Swell Vis
km
Cloud Weather Temp
°C
Press
MSL
hPa
Rain since
9am
mm
Dir  Spd
kts
Gust
kts
Height
m
Period
s
Dir
07/06:00am SW 8 11 - - - - - - - 14.2 1015.1 0.0
07/05:30am S 12 14 - - - - - - - 15.0 1014.6 0.0
07/05:00am S 12 15 - - - - - - - 15.1 1014.5 0.0
07/04:30am SSE 13 15 - - - - - - - 15.4 1014.4 0.0
07/04:00am SSE 12 14 - - - - - - - 15.4 1014.4 0.0
07/03:30am SSE 7 11 - - - - - - - 14.5 1014.4 0.0
07/03:00am SW 7 8 - - - - - - - 14.9 1014.5 0.0
07/02:30am SW 9 9 - - - - - - - 15.2 1014.5 0.0
07/02:00am SW 8 9 - - - - - - - 15.3 1014.4 0.0
07/01:30am SW 11 13 - - - - - - - 15.7 1014.2 0.0
07/01:00am SSW 10 13 - - - - - - - 15.8 1014.3 0.0
07/12:30am SSW 10 12 - - - - - - - 16.0 1014.2 0.0
07/12:00am SW 9 11 - - - - - - - 15.7 1014.1 0.0
 
Date/Time
EDT
Wind Sea
Height
m
Swell Vis
km
Cloud Weather Temp
°C
Press
MSL
hPa
Rain since
9am
mm
Dir  Spd
kts
Gust
kts
Height
m
Period
s
Dir
06/11:30pm SW 9 11 - - - - - - - 15.8 1014.0 0.0
06/11:00pm SW 6 7 - - - - - - - 16.1 1013.8 0.0
06/10:30pm WSW 7 8 - - - - - - - 16.5 1013.7 0.0
06/10:00pm SW 7 8 - - - - - - - 16.9 1013.7 0.0
06/09:30pm SSW 9 9 - - - - - - - 17.4 1013.4 0.0
06/09:00pm SW 10 12 - - - - - - - 18.1 1012.9 0.0
06/08:30pm W 12 17 - - - - - - - 19.3 1012.3 0.0
06/08:00pm W 17 24 - - - - - - - 20.2 1011.9 0.0
06/07:30pm WNW 18 23 - - - - - - - 21.1 1011.8 0.0
06/07:00pm WNW 19 27 - - - - - - - 22.1 1011.6 0.0
06/06:30pm WNW 20 28 - - - - - - - 22.3 1011.4 0.0
06/06:00pm WNW 21 30 - - - - - - - 22.7 1011.5 0.0
06/05:57pm WNW 20 30 - - - - - - - 22.5 1011.6 0.0
06/05:30pm WNW 19 25 - - - - - - - 22.9 1011.7 0.0
06/05:00pm WNW 22 29 - - - - - - - 23.7 1011.8 0.0
06/04:30pm WNW 19 27 - - - - - - - 24.6 1011.9 0.0
06/04:00pm WNW 18 25 - - - - - - - 25.4 1012.0 0.0
06/03:30pm WNW 15 20 - - - - - - - 25.9 1012.2 0.0
06/03:00pm WNW 15 22 - - - - - - - 25.3 1012.3 0.0
06/02:30pm WNW 16 24 - - - - - - - 25.3 1012.5 0.0
06/02:00pm NW 17 24 - - - - - - - 24.9 1012.8 0.0
06/01:30pm NW 16 21 - - - - - - - 24.2 1013.0 0.0
06/01:00pm NNE 7 17 - - - - - - - 22.9 1013.3 0.0
06/12:30pm ESE 11 14 - - - - - - - 21.0 1014.0 0.0
06/12:00pm ENE 7 9 - - - - - - - 20.4 1014.1 0.0
06/11:30am E 5 7 - - - - - - - 20.3 1014.7 0.0
06/11:00am SE 6 7 - - - - - - - 20.9 1014.9 0.0
06/10:30am S 7 9 - - - - - - - 19.6 1015.2 0.0
06/10:00am S 7 9 - - - - - - - 19.1 1014.7 0.0
06/09:30am S 9 11 - - - - - - - 19.4 1014.7 0.0
06/09:00am W 8 10 - - - - - - - 18.0 1014.7 0.0
06/08:30am W 9 14 - - - - - - - 16.7 1014.7 0.0
06/08:00am WNW 7 9 - - - - - - - 14.7 1014.2 0.0
06/07:30am WNW 8 10 - - - - - - - 12.9 1014.1 0.0
06/07:00am NW 8 9 - - - - - - - 12.0 1013.6 0.0
06/06:30am NW 6 8 - - - - - - - 12.0 1013.3 0.0
06/06:00am NW 7 8 - - - - - - - 12.2 1013.2 0.0
06/05:30am NW 8 10 - - - - - - - 12.5 1012.8 0.0
06/05:00am NW 9 12 - - - - - - - 12.8 1012.6 0.0
06/04:30am NW 10 12 - - - - - - - 12.7 1012.4 0.0
06/04:00am NW 10 12 - - - - - - - 12.9 1012.4 0.0
06/03:30am NW 9 11 - - - - - - - 13.1 1012.6 0.0
06/03:00am NW 10 13 - - - - - - - 13.5 1012.8 0.0
06/02:30am NW 10 12 - - - - - - - 13.7 1012.7 0.0
06/02:00am NW 11 14 - - - - - - - 14.3 1012.8 0.0
06/01:30am WNW 10 15 - - - - - - - 14.7 1012.9 0.0
06/01:00am NW 12 16 - - - - - - - 14.8 1012.9 0.0
06/12:30am WNW 12 16 - - - - - - - 15.0 1012.9 0.0
06/12:00am WNW 14 19 - - - - - - - 15.2 1012.8 0.0
 
Date/Time
EDT
Wind Sea
Height
m
Swell Vis
km
Cloud Weather Temp
°C
Press
MSL
hPa
Rain since
9am
mm
Dir  Spd
kts
Gust
kts
Height
m
Period
s
Dir
05/11:30pm NW 15 20 - - - - - - - 15.3 1012.7 0.0
05/11:00pm NW 15 21 - - - - - - - 15.8 1013.0 0.0
05/10:30pm NW 16 20 - - - - - - - 15.9 1013.2 0.0
05/10:00pm NW 12 16 - - - - - - - 16.0 1013.5 0.0
05/09:30pm NW 13 18 - - - - - - - 16.1 1013.2 0.0
05/09:00pm NW 15 18 - - - - - - - 16.5 1013.0 0.0
05/08:30pm NW 14 18 - - - - - - - 17.0 1012.9 0.0
05/08:00pm NW 15 20 - - - - - - - 17.7 1012.6 0.0
05/07:30pm NW 18 22 - - - - - - - 18.6 1012.3 0.0
05/07:00pm NW 18 24 - - - - - - - 19.4 1012.2 0.0
05/06:30pm NW 17 24 - - - - - - - 20.3 1012.0 0.0
05/06:00pm NW 15 22 - - - - - - - 21.1 1012.0 0.0
05/05:30pm NW 16 21 - - - - - - - 21.7 1012.0 0.0
05/05:00pm NNW 15 19 - - - - - - - 21.4 1011.9 0.0
05/04:30pm N 19 24 - - - - - - - 20.1 1011.7 0.0
05/04:00pm N 18 22 - - - - - - - 19.6 1011.8 0.0
05/03:30pm N 17 22 - - - - - - - 19.6 1011.7 0.0
05/03:00pm N 20 24 - - - - - - - 19.5 1011.7 0.0
05/02:30pm N 19 23 - - - - - - - 19.6 1011.7 0.0
05/02:00pm N 18 22 - - - - - - - 20.1 1011.9 0.0
05/01:30pm NNE 14 19 - - - - - - - 19.2 1012.2 0.0
05/01:00pm NNE 13 16 - - - - - - - 19.9 1012.3 0.0
05/12:30pm NNE 13 16 - - - - - - - 20.0 1012.2 0.0
05/12:00pm NNE 9 12 - - - - - - - 19.6 1012.0 0.0
05/11:30am NE 11 13 - - - - - - - 20.2 1011.9 0.0
05/11:00am NE 14 16 - - - - - - - 18.8 1011.9 0.0
05/10:30am NNE 11 13 - - - - - - - 18.4 1011.5 0.0
05/10:00am N 7 10 - - - - - - - 18.7 1011.3 0.0
05/09:30am W 6 9 - - - - - - - 18.8 1011.0 0.0
05/09:00am WSW 8 11 - - - - - - - 17.8 1010.7 1.0
05/08:30am WNW 7 9 - - - - - - - 16.3 1010.4 1.0
05/08:00am NW 6 7 - - - - - - - 14.6 1009.9 1.0
05/07:30am W 5 7 - - - - - - - 14.2 1009.5 1.0
05/07:00am WSW 5 7 - - - - - - - 13.3 1009.0 1.0
05/06:30am W 9 11 - - - - - - - 12.0 1008.5 1.0
05/06:00am WSW 9 11 - - - - - - - 12.1 1007.9 1.0
05/05:30am WSW 8 10 - - - - - - - 12.3 1007.4 1.0
05/05:00am W 9 12 - - - - - - - 12.6 1006.7 1.0
05/04:30am WSW 10 14 - - - - - - - 13.3 1006.3 1.0
05/04:00am WSW 13 16 - - - - - - - 13.9 1006.0 1.0
05/03:30am W 12 15 - - - - - - - 13.4 1005.7 1.0
05/03:00am W 12 14 - - - - - - - 12.8 1005.5 0.8
05/02:30am W 10 13 - - - - - - - 13.2 1005.0 0.8
05/02:00am W 13 16 - - - - - - - 14.0 1004.6 0.8
05/01:30am W 13 17 - - - - - - - 14.0 1004.1 0.8
05/01:00am W 13 17 - - - - - - - 14.4 1003.7 0.8
05/12:30am W 14 17 - - - - - - - 14.8 1003.4 0.8
05/12:00am W 11 16 - - - - - - - 14.8 1003.3 0.8
 
Date/Time
EDT
Wind Sea
Height
m
Swell Vis
km
Cloud Weather Temp
°C
Press
MSL
hPa
Rain since
9am
mm
Dir  Spd
kts
Gust
kts
Height
m
Period
s
Dir
04/11:30pm W 10 13 - - - - - - - 14.4 1003.0 0.8
04/11:00pm NW 5 6 - - - - - - - 15.0 1003.0 0.8
04/10:30pm CALM 0 0 - - - - - - - 15.4 1002.7 0.8
04/10:00pm S 5 6 - - - - - - - 15.1 1002.4 0.8
04/09:30pm S 8 10 - - - - - - - 15.7 1001.9 0.8
04/09:00pm SSW 5 7 - - - - - - - 15.8 1001.0 0.8
04/08:30pm S 5 7 - - - - - - - 16.2 1000.2 0.8
04/08:00pm SSE 8 12 - - - - - - - 16.5 999.7 0.8
04/07:30pm S 8 10 - - - - - - - 17.8 999.0 0.8
04/07:00pm S 8 10 - - - - - - - 18.6 998.1 0.8
04/06:30pm SW 12 16 - - - - - - - 19.2 997.4 0.8
04/06:00pm W 13 18 - - - - - - - 19.8 996.9 0.8
04/05:30pm W 10 15 - - - - - - - 20.9 996.7 0.8
04/05:00pm WSW 12 17 - - - - - - - 19.7 996.7 0.8
04/04:30pm W 13 19 - - - - - - - 17.6 996.6 0.8
04/04:00pm W 11 16 - - - - - - - 16.2 996.7 0.8
04/03:30pm SW 6 11 - - - - - - - 16.5 996.7 0.8
04/03:00pm S 7 9 - - - - - - Recent precip. 16.3 996.5 0.6
04/02:30pm SW 16 20 - - - - - - - 15.9 996.4 0.0
04/02:21pm SW 14 21 - - - - - - - 16.2 996.2 0.0
04/02:00pm SSE 5 7 - - - - - - - 18.2 995.8 0.0
04/01:30pm S 8 11 - - - - - - - 18.9 995.6 0.0
04/01:00pm WSW 11 17 - - - - - - - 18.5 995.4 0.0
04/12:30pm WNW 11 15 - - - - - - - 19.4 995.3 0.0
04/12:00pm WNW 11 16 - - - - - - - 19.6 995.6 0.0
04/11:30am WNW 11 16 - - - - - - - 18.6 995.9 0.0
04/11:00am WNW 10 15 - - - - - - - 16.3 996.2 0.0
04/10:30am WNW 15 20 - - - - - - - 16.3 996.2 0.0
04/10:00am WNW 14 20 - - - - - - - 17.1 996.3 0.0
04/09:30am WNW 13 19 - - - - - - - 17.7 996.0 0.0
04/09:00am WNW 13 19 - - - - - - - 17.2 995.9 0.2
04/08:30am NW 8 11 - - - - - - - 16.0 995.9 0.2
04/08:00am WNW 7 9 - - - - - - - 14.5 995.6 0.2
04/07:30am WNW 8 10 - - - - - - - 12.6 995.5 0.2
04/07:00am NNW 5 6 - - - - - - - 11.4 995.3 0.2
04/06:30am NNW 6 7 - - - - - - - 11.2 995.2 0.2

Other formats

Comma delimited format used in spreadsheet applications
http://www.bom.gov.au/fwo/IDT60701/IDT60701.94983.axf

JavaScript Object Notation format (JSON) in row-major order
http://www.bom.gov.au/fwo/IDT60701/IDT60701.94983.json

Data quality

Most of these data are generated automatically and are frequently updated. Quality checks on data are not normally performed. It is possible for incorrect values to appear. Refer to information at About Latest Weather Observations and please check the disclaimer before using these data.